sensor_id;sensor_type;location;lat;lon;timestamp;pressure;altitude;pressure_sealevel;temperature;humidity
4123;BME280;2075;51.062;6.920;2023-02-28T00:02:42;95265.34;;;-144.48;91.44
4123;BME280;2075;51.062;6.920;2023-02-28T00:05:28;95243.00;;;-144.48;92.65
4123;BME280;2075;51.062;6.920;2023-02-28T00:08:13;95249.09;;;-144.48;93.34
4123;BME280;2075;51.062;6.920;2023-02-28T00:11:01;95212.53;;;-144.48;93.48
4123;BME280;2075;51.062;6.920;2023-02-28T00:13:47;94991.00;;;-144.48;93.40
4123;BME280;2075;51.062;6.920;2023-02-28T00:16:33;95238.94;;;-144.48;93.16
4123;BME280;2075;51.062;6.920;2023-02-28T00:19:19;95204.38;;;-144.48;92.81
4123;BME280;2075;51.062;6.920;2023-02-28T00:22:05;95245.03;;;-144.48;93.47
4123;BME280;2075;51.062;6.920;2023-02-28T00:24:50;95204.38;;;-144.48;93.89
4123;BME280;2075;51.062;6.920;2023-02-28T00:27:36;95190.16;;;-144.48;94.09
4123;BME280;2075;51.062;6.920;2023-02-28T00:30:23;95204.38;;;-144.48;93.63
4123;BME280;2075;51.062;6.920;2023-02-28T00:33:08;95196.25;;;-144.48;93.41
4123;BME280;2075;51.062;6.920;2023-02-28T00:36:03;95149.53;;;-144.48;94.14
4123;BME280;2075;51.062;6.920;2023-02-28T00:38:48;95212.53;;;-144.48;94.60
4123;BME280;2075;51.062;6.920;2023-02-28T00:41:33;95212.53;;;-144.48;94.65
4123;BME280;2075;51.062;6.920;2023-02-28T00:44:18;95163.75;;;-144.48;95.58
4123;BME280;2075;51.062;6.920;2023-02-28T00:47:05;95206.41;;;-144.48;94.58
4123;BME280;2075;51.062;6.920;2023-02-28T00:49:50;95190.16;;;-144.48;93.94
4123;BME280;2075;51.062;6.920;2023-02-28T00:52:37;95184.06;;;-144.48;94.34
4123;BME280;2075;51.062;6.920;2023-02-28T00:55:22;95200.31;;;-144.48;95.31
4123;BME280;2075;51.062;6.920;2023-02-28T00:58:08;95165.78;;;-144.48;95.51
4123;BME280;2075;51.062;6.920;2023-02-28T01:00:53;95204.38;;;-144.48;95.22
4123;BME280;2075;51.062;6.920;2023-02-28T01:03:38;95196.25;;;-144.48;95.92
4123;BME280;2075;51.062;6.920;2023-02-28T01:06:24;95192.19;;;-144.48;96.96
4123;BME280;2075;51.062;6.920;2023-02-28T01:09:11;95202.34;;;-144.48;96.68
4123;BME280;2075;51.062;6.920;2023-02-28T01:11:59;95163.75;;;-144.48;96.55
4123;BME280;2075;51.062;6.920;2023-02-28T01:14:44;95236.91;;;-144.48;95.97
4123;BME280;2075;51.062;6.920;2023-02-28T01:17:30;95100.75;;;-144.48;96.47
4123;BME280;2075;51.062;6.920;2023-02-28T01:20:18;95194.22;;;-144.48;97.58
4123;BME280;2075;51.062;6.920;2023-02-28T01:23:03;95226.75;;;-144.48;98.37
4123;BME280;2075;51.062;6.920;2023-02-28T01:25:50;95175.94;;;-144.48;98.89
4123;BME280;2075;51.062;6.920;2023-02-28T01:28:36;95198.28;;;-144.48;97.40
4123;BME280;2075;51.062;6.920;2023-02-28T01:31:22;95182.03;;;-144.48;97.71
4123;BME280;2075;51.062;6.920;2023-02-28T01:34:07;95194.22;;;-144.48;98.07
4123;BME280;2075;51.062;6.920;2023-02-28T01:36:53;95114.97;;;-144.48;97.98
4123;BME280;2075;51.062;6.920;2023-02-28T01:39:38;95184.06;;;-144.48;98.27
4123;BME280;2075;51.062;6.920;2023-02-28T01:42:25;95173.91;;;-144.48;98.99
4123;BME280;2075;51.062;6.920;2023-02-28T01:45:20;95188.13;;;-144.48;98.90
4123;BME280;2075;51.062;6.920;2023-02-28T01:48:08;95200.31;;;-144.48;99.82
4123;BME280;2075;51.062;6.920;2023-02-28T01:50:55;95155.63;;;-144.48;100.00
4123;BME280;2075;51.062;6.920;2023-02-28T01:53:47;95149.53;;;-144.48;100.00
4123;BME280;2075;51.062;6.920;2023-02-28T01:56:35;95106.84;;;-144.48;98.44
4123;BME280;2075;51.062;6.920;2023-02-28T01:59:29;95232.84;;;-144.48;97.12
4123;BME280;2075;51.062;6.920;2023-02-28T02:02:17;95155.63;;;-144.48;97.21
4123;BME280;2075;51.062;6.920;2023-02-28T02:05:06;94810.16;;;-144.48;96.58
4123;BME280;2075;51.062;6.920;2023-02-28T02:07:54;95243.00;;;-144.48;97.28
4123;BME280;2075;51.062;6.920;2023-02-28T02:10:43;95159.69;;;-144.48;98.49
4123;BME280;2075;51.062;6.920;2023-02-28T02:13:40;95198.28;;;-144.48;100.00
4123;BME280;2075;51.062;6.920;2023-02-28T02:16:36;95163.75;;;-144.48;100.00
4123;BME280;2075;51.062;6.920;2023-02-28T02:20:00;95188.13;;;-144.48;98.74
4123;BME280;2075;51.062;6.920;2023-02-28T02:23:18;95218.63;;;-144.48;98.75
4123;BME280;2075;51.062;6.920;2023-02-28T02:26:25;95163.75;;;-144.48;98.35
4123;BME280;2075;51.062;6.920;2023-02-28T02:29:33;95202.34;;;-144.48;98.11
4123;BME280;2075;51.062;6.920;2023-02-28T02:32:37;95196.25;;;-144.48;97.50
4123;BME280;2075;51.062;6.920;2023-02-28T02:35:35;95182.03;;;-144.48;97.95
4123;BME280;2075;51.062;6.920;2023-02-28T02:38:31;95253.16;;;-144.48;97.09
4123;BME280;2075;51.062;6.920;2023-02-28T02:41:24;95131.22;;;-144.48;99.68
4123;BME280;2075;51.062;6.920;2023-02-28T02:44:19;95157.66;;;-144.48;100.00
4123;BME280;2075;51.062;6.920;2023-02-28T02:47:10;95108.88;;;-144.48;100.00
4123;BME280;2075;51.062;6.920;2023-02-28T02:49:59;95074.31;;;-144.48;100.00
4123;BME280;2075;51.062;6.920;2023-02-28T02:52:54;95106.84;;;-144.48;100.00
4123;BME280;2075;51.062;6.920;2023-02-28T02:55:44;95090.59;;;-144.48;100.00
4123;BME280;2075;51.062;6.920;2023-02-28T02:58:35;95098.72;;;-144.48;100.00
4123;BME280;2075;51.062;6.920;2023-02-28T03:01:27;95007.28;;;-144.48;100.00
4123;BME280;2075;51.062;6.920;2023-02-28T03:04:18;95023.53;;;-144.48;100.00
4123;BME280;2075;51.062;6.920;2023-02-28T03:07:04;94822.34;;;-144.48;100.00
4123;BME280;2075;51.062;6.920;2023-02-28T03:09:52;94645.56;;;-144.48;100.00
4123;BME280;2075;51.062;6.920;2023-02-28T03:12:41;94277.81;;;-144.48;100.00
4123;BME280;2075;51.062;6.920;2023-02-28T03:15:37;92447.78;;;-144.48;100.00
4123;BME280;2075;51.062;6.920;2023-02-28T03:18:32;91763.53;;;-144.48;100.00
4123;BME280;2075;51.062;6.920;2023-02-28T03:21:27;90119.47;;;-144.48;100.00
4123;BME280;2075;51.062;6.920;2023-02-28T03:24:18;82331.97;;;-144.48;100.00
4123;BME280;2075;51.062;6.920;2023-02-28T03:27:08;86257.97;;;-144.48;100.00
4123;BME280;2075;51.062;6.920;2023-02-28T03:30:00;87488.56;;;-144.48;100.00
4123;BME280;2075;51.062;6.920;2023-02-28T03:32:53;82204.41;;;-144.48;100.00
4123;BME280;2075;51.062;6.920;2023-02-28T03:35:43;78481.22;;;-144.48;100.00
4123;BME280;2075;51.062;6.920;2023-02-28T03:38:33;75952.13;;;-144.48;100.00
4123;BME280;2075;51.062;6.920;2023-02-28T03:41:22;73891.44;;;-144.48;100.00
4123;BME280;2075;51.062;6.920;2023-02-28T03:44:12;75808.66;;;-144.48;100.00
4123;BME280;2075;51.062;6.920;2023-02-28T03:47:03;75628.81;;;-144.48;100.00
4123;BME280;2075;51.062;6.920;2023-02-28T03:49:53;76053.19;;;-144.48;100.00
4123;BME280;2075;51.062;6.920;2023-02-28T03:52:43;76546.31;;;-144.48;100.00
4123;BME280;2075;51.062;6.920;2023-02-28T03:55:33;70225.66;;;-144.48;100.00
4123;BME280;2075;51.062;6.920;2023-02-28T03:58:29;68160.31;;;-144.48;100.00
4123;BME280;2075;51.062;6.920;2023-02-28T04:01:21;67902.25;;;-144.48;100.00
4123;BME280;2075;51.062;6.920;2023-02-28T04:04:08;70292.22;;;-144.48;100.00
4123;BME280;2075;51.062;6.920;2023-02-28T04:07:02;72524.38;;;-144.48;100.00
4123;BME280;2075;51.062;6.920;2023-02-28T04:09:47;67386.16;;;-144.48;100.00
4123;BME280;2075;51.062;6.920;2023-02-28T04:12:32;60941.53;;;-144.48;100.00
4123;BME280;2075;51.062;6.920;2023-02-28T04:15:18;52196.44;;;-144.48;100.00
4123;BME280;2075;51.062;6.920;2023-02-28T04:18:08;50912.28;;;-144.48;100.00
4123;BME280;2075;51.062;6.920;2023-02-28T04:20:53;50655.50;;;-144.48;100.00
4123;BME280;2075;51.062;6.920;2023-02-28T04:23:38;49115.28;;;-144.48;100.00
4123;BME280;2075;51.062;6.920;2023-02-28T04:26:24;48345.44;;;-144.48;100.00
4123;BME280;2075;51.062;6.920;2023-02-28T04:29:10;46549.84;;;-144.48;100.00
4123;BME280;2075;51.062;6.920;2023-02-28T04:31:56;44755.16;;;-144.48;100.00
4123;BME280;2075;51.062;6.920;2023-02-28T04:34:44;44755.16;;;-144.48;100.00
4123;BME280;2075;51.062;6.920;2023-02-28T04:37:29;47832.31;;;-144.48;100.00
4123;BME280;2075;51.062;6.920;2023-02-28T04:40:18;47062.78;;;-144.48;100.00
4123;BME280;2075;51.062;6.920;2023-02-28T04:43:04;45524.19;;;-144.48;100.00
4123;BME280;2075;51.062;6.920;2023-02-28T04:45:49;45524.19;;;-144.48;100.00
4123;BME280;2075;51.062;6.920;2023-02-28T04:48:36;43473.84;;;-144.48;100.00
4123;BME280;2075;51.062;6.920;2023-02-28T04:51:23;43217.66;;;-144.48;100.00
4123;BME280;2075;51.062;6.920;2023-02-28T04:54:08;45011.50;;;-144.48;100.00
4123;BME280;2075;51.062;6.920;2023-02-28T04:56:53;50142.03;;;-144.48;100.00
4123;BME280;2075;51.062;6.920;2023-02-28T04:59:39;61971.84;;;-144.48;100.00
4123;BME280;2075;51.062;6.920;2023-02-28T05:02:24;72722.22;;;-144.48;100.00
4123;BME280;2075;51.062;6.920;2023-02-28T05:05:10;89362.66;;;-144.48;100.00
4123;BME280;2075;51.062;6.920;2023-02-28T05:08:02;92981.88;;;-144.48;100.00
4123;BME280;2075;51.062;6.920;2023-02-28T05:10:47;93587.13;;;-144.48;100.00
4123;BME280;2075;51.062;6.920;2023-02-28T05:13:32;94379.41;;;-144.48;100.00
4123;BME280;2075;51.062;6.920;2023-02-28T05:16:19;94781.72;;;-144.48;100.00
4123;BME280;2075;51.062;6.920;2023-02-28T05:19:05;95041.81;;;-144.48;100.00
4123;BME280;2075;51.062;6.920;2023-02-28T05:21:52;95123.09;;;-144.48;100.00
4123;BME280;2075;51.062;6.920;2023-02-28T05:24:39;95159.69;;;-144.48;100.00
4123;BME280;2075;51.062;6.920;2023-02-28T05:27:26;95212.53;;;-144.48;100.00
4123;BME280;2075;51.062;6.920;2023-02-28T05:30:12;95155.63;;;-144.48;100.00
4123;BME280;2075;51.062;6.920;2023-02-28T05:32:58;95208.44;;;-144.48;100.00
4123;BME280;2075;51.062;6.920;2023-02-28T05:35:45;95212.53;;;-144.48;100.00
4123;BME280;2075;51.062;6.920;2023-02-28T05:38:30;95238.94;;;-144.48;100.00
4123;BME280;2075;51.062;6.920;2023-02-28T05:41:18;95234.88;;;-144.48;100.00
4123;BME280;2075;51.062;6.920;2023-02-28T05:44:04;95480.78;;;-144.48;100.00
4123;BME280;2075;51.062;6.920;2023-02-28T05:46:50;95236.91;;;-144.48;100.00
4123;BME280;2075;51.062;6.920;2023-02-28T05:49:35;95261.28;;;-144.48;95.12
4123;BME280;2075;51.062;6.920;2023-02-28T05:52:21;95257.22;;;-144.48;93.81
4123;BME280;2075;51.062;6.920;2023-02-28T05:55:08;95513.31;;;-144.48;92.43
4123;BME280;2075;51.062;6.920;2023-02-28T05:57:55;95517.38;;;-144.48;91.21
4123;BME280;2075;51.062;6.920;2023-02-28T06:00:40;95279.59;;;-144.48;90.40
4123;BME280;2075;51.062;6.920;2023-02-28T06:03:26;95310.06;;;-144.48;90.10
4123;BME280;2075;51.062;6.920;2023-02-28T06:06:12;95287.72;;;-144.48;89.17
4123;BME280;2075;51.062;6.920;2023-02-28T06:08:57;95287.72;;;-144.48;88.96
4123;BME280;2075;51.062;6.920;2023-02-28T06:11:43;95592.56;;;-144.48;88.46
4123;BME280;2075;51.062;6.920;2023-02-28T06:14:30;95350.72;;;-144.48;87.63
4123;BME280;2075;51.062;6.920;2023-02-28T06:17:16;95259.25;;;-144.48;87.23
4123;BME280;2075;51.062;6.920;2023-02-28T06:20:02;95249.09;;;-144.48;87.18
4123;BME280;2075;51.062;6.920;2023-02-28T06:22:47;95265.34;;;-144.48;87.58
4123;BME280;2075;51.062;6.920;2023-02-28T06:25:35;95293.81;;;-144.48;87.27
4123;BME280;2075;51.062;6.920;2023-02-28T06:28:20;95306.00;;;-144.48;86.01
4123;BME280;2075;51.062;6.920;2023-02-28T06:31:08;95273.47;;;-144.48;83.70
4123;BME280;2075;51.062;6.920;2023-02-28T06:33:54;95281.63;;;-144.48;83.48
4123;BME280;2075;51.062;6.920;2023-02-28T06:36:41;95257.22;;;-144.48;83.76
4123;BME280;2075;51.062;6.920;2023-02-28T06:39:26;95277.56;;;-144.48;83.18
4123;BME280;2075;51.062;6.920;2023-02-28T06:42:11;95273.47;;;-144.48;83.71
4123;BME280;2075;51.062;6.920;2023-02-28T06:44:57;95257.22;;;-144.48;83.87
4123;BME280;2075;51.062;6.920;2023-02-28T06:47:44;95297.88;;;-144.48;84.47
4123;BME280;2075;51.062;6.920;2023-02-28T06:50:36;95277.56;;;-144.48;83.95
4123;BME280;2075;51.062;6.920;2023-02-28T06:53:22;95257.22;;;-144.48;83.46
4123;BME280;2075;51.062;6.920;2023-02-28T06:56:09;95291.78;;;-144.48;83.65
4123;BME280;2075;51.062;6.920;2023-02-28T06:58:55;95297.88;;;-144.48;82.42
4123;BME280;2075;51.062;6.920;2023-02-28T07:01:43;95110.91;;;-144.48;70.70
4123;BME280;2075;51.062;6.920;2023-02-28T07:04:33;94901.59;;;-144.48;50.10
4123;BME280;2075;51.062;6.920;2023-02-28T07:07:18;94779.69;;;-144.48;43.90
4123;BME280;2075;51.062;6.920;2023-02-28T07:10:05;94718.72;;;-144.48;40.06
4123;BME280;2075;51.062;6.920;2023-02-28T07:12:50;94582.59;;;-144.48;37.66
4123;BME280;2075;51.062;6.920;2023-02-28T07:15:36;94625.25;;;-144.48;39.23
4123;BME280;2075;51.062;6.920;2023-02-28T07:18:21;94651.66;;;-144.48;37.88
4123;BME280;2075;51.062;6.920;2023-02-28T07:21:10;94570.41;;;-144.48;36.54
4123;BME280;2075;51.062;6.920;2023-02-28T07:23:55;94899.56;;;-144.48;39.63
4123;BME280;2075;51.062;6.920;2023-02-28T07:26:41;95068.22;;;-144.48;45.48
4123;BME280;2075;51.062;6.920;2023-02-28T07:29:27;95145.47;;;-144.48;51.85
4123;BME280;2075;51.062;6.920;2023-02-28T07:32:12;95188.13;;;-144.48;55.54
4123;BME280;2075;51.062;6.920;2023-02-28T07:34:57;95202.34;;;-144.48;57.56
4123;BME280;2075;51.062;6.920;2023-02-28T07:37:44;95196.25;;;-144.48;58.79
4123;BME280;2075;51.062;6.920;2023-02-28T07:40:31;95186.09;;;-144.48;59.12
4123;BME280;2075;51.062;6.920;2023-02-28T07:43:16;95175.94;;;-144.48;58.85
4123;BME280;2075;51.062;6.920;2023-02-28T07:46:03;95180.00;;;-144.48;57.77
4123;BME280;2075;51.062;6.920;2023-02-28T07:48:49;95171.88;;;-144.48;57.98
4123;BME280;2075;51.062;6.920;2023-02-28T07:51:35;95135.28;;;-144.48;56.14
4123;BME280;2075;51.062;6.920;2023-02-28T07:54:22;95155.63;;;-144.48;54.05
4123;BME280;2075;51.062;6.920;2023-02-28T07:57:07;95161.72;;;-144.48;53.03
4123;BME280;2075;51.062;6.920;2023-02-28T07:59:52;95167.81;;;-144.48;51.87
4123;BME280;2075;51.062;6.920;2023-02-28T08:02:38;95163.75;;;-144.48;50.59
4123;BME280;2075;51.062;6.920;2023-02-28T08:05:23;95145.47;;;-144.48;50.66
4123;BME280;2075;51.062;6.920;2023-02-28T08:08:09;95114.97;;;-144.48;49.90
4123;BME280;2075;51.062;6.920;2023-02-28T08:10:58;95123.09;;;-144.48;48.90
4123;BME280;2075;51.062;6.920;2023-02-28T08:13:44;95135.28;;;-144.48;49.08
4123;BME280;2075;51.062;6.920;2023-02-28T08:16:29;95114.97;;;-144.48;48.79
4123;BME280;2075;51.062;6.920;2023-02-28T08:19:15;95108.88;;;-144.48;47.77
4123;BME280;2075;51.062;6.920;2023-02-28T08:22:00;95112.94;;;-144.48;47.32
4123;BME280;2075;51.062;6.920;2023-02-28T08:24:46;95094.66;;;-144.48;46.16
4123;BME280;2075;51.062;6.920;2023-02-28T08:27:32;95110.91;;;-144.48;45.69
4123;BME280;2075;51.062;6.920;2023-02-28T08:30:18;95086.53;;;-144.48;45.61
4123;BME280;2075;51.062;6.920;2023-02-28T08:33:04;95143.44;;;-144.48;44.92
4123;BME280;2075;51.062;6.920;2023-02-28T08:35:52;95104.81;;;-144.48;44.94
4123;BME280;2075;51.062;6.920;2023-02-28T08:38:38;95084.50;;;-144.48;44.12
4123;BME280;2075;51.062;6.920;2023-02-28T08:41:23;95060.09;;;-144.48;43.15
4123;BME280;2075;51.062;6.920;2023-02-28T08:44:11;95117.00;;;-144.48;42.64
4123;BME280;2075;51.062;6.920;2023-02-28T08:46:56;95076.38;;;-144.48;42.61
4123;BME280;2075;51.062;6.920;2023-02-28T08:49:42;95039.78;;;-144.48;43.22
4123;BME280;2075;51.062;6.920;2023-02-28T08:52:27;95054.00;;;-144.48;42.61
4123;BME280;2075;51.062;6.920;2023-02-28T08:55:13;95066.19;;;-144.48;42.18
4123;BME280;2075;51.062;6.920;2023-02-28T08:57:59;94891.44;;;-144.48;41.37
4123;BME280;2075;51.062;6.920;2023-02-28T09:00:47;95076.38;;;-144.48;42.50
4123;BME280;2075;51.062;6.920;2023-02-28T09:03:33;95074.31;;;-144.48;40.82
4123;BME280;2075;51.062;6.920;2023-02-28T09:06:19;95080.44;;;-144.48;41.15
4123;BME280;2075;51.062;6.920;2023-02-28T09:09:05;95078.41;;;-144.48;40.76
4123;BME280;2075;51.062;6.920;2023-02-28T09:11:51;95062.13;;;-144.48;40.88
4123;BME280;2075;51.062;6.920;2023-02-28T09:14:36;95064.16;;;-144.48;40.78
4123;BME280;2075;51.062;6.920;2023-02-28T09:17:23;95090.59;;;-144.48;40.87
4123;BME280;2075;51.062;6.920;2023-02-28T09:20:10;95031.66;;;-144.48;40.43
4123;BME280;2075;51.062;6.920;2023-02-28T09:22:55;95062.13;;;-144.48;39.45
4123;BME280;2075;51.062;6.920;2023-02-28T09:25:45;95049.94;;;-144.48;40.34
4123;BME280;2075;51.062;6.920;2023-02-28T09:28:31;95049.94;;;-144.48;40.74
4123;BME280;2075;51.062;6.920;2023-02-28T09:31:18;94976.78;;;-144.48;39.92
4123;BME280;2075;51.062;6.920;2023-02-28T09:34:06;95017.44;;;-144.48;39.46
4123;BME280;2075;51.062;6.920;2023-02-28T09:36:52;95017.44;;;-144.48;40.58
4123;BME280;2075;51.062;6.920;2023-02-28T09:39:39;95021.50;;;-144.48;40.03
4123;BME280;2075;51.062;6.920;2023-02-28T09:42:30;95015.41;;;-144.48;40.25
4123;BME280;2075;51.062;6.920;2023-02-28T09:45:21;94950.38;;;-144.48;40.01
4123;BME280;2075;51.062;6.920;2023-02-28T09:48:13;95013.38;;;-144.48;40.11
4123;BME280;2075;51.062;6.920;2023-02-28T09:51:03;94942.25;;;-144.48;39.53
4123;BME280;2075;51.062;6.920;2023-02-28T09:53:49;95009.31;;;-144.48;39.51
4123;BME280;2075;51.062;6.920;2023-02-28T09:56:37;95013.38;;;-144.48;39.54
4123;BME280;2075;51.062;6.920;2023-02-28T09:59:39;94982.88;;;-144.48;38.95
4123;BME280;2075;51.062;6.920;2023-02-28T10:02:46;94976.78;;;-144.48;39.21
4123;BME280;2075;51.062;6.920;2023-02-28T10:05:38;94962.56;;;-144.48;39.03
4123;BME280;2075;51.062;6.920;2023-02-28T10:08:28;94997.13;;;-144.48;38.45
4123;BME280;2075;51.062;6.920;2023-02-28T10:11:16;94960.53;;;-144.48;38.38
4123;BME280;2075;51.062;6.920;2023-02-28T10:14:10;94968.66;;;-144.48;39.04
4123;BME280;2075;51.062;6.920;2023-02-28T10:17:02;95013.38;;;-144.48;38.71
4123;BME280;2075;51.062;6.920;2023-02-28T10:19:56;94978.81;;;-144.48;38.79
4123;BME280;2075;51.062;6.920;2023-02-28T10:22:52;94899.56;;;-144.48;38.79
4123;BME280;2075;51.062;6.920;2023-02-28T10:25:40;94936.16;;;-144.48;38.60
4123;BME280;2075;51.062;6.920;2023-02-28T10:28:32;94938.19;;;-144.48;37.94
4123;BME280;2075;51.062;6.920;2023-02-28T10:31:18;94919.91;;;-144.48;37.88
4123;BME280;2075;51.062;6.920;2023-02-28T10:34:04;94930.06;;;-144.48;38.35
4123;BME280;2075;51.062;6.920;2023-02-28T10:36:50;94928.03;;;-144.48;38.24
4123;BME280;2075;51.062;6.920;2023-02-28T10:39:44;94923.97;;;-144.48;38.95
4123;BME280;2075;51.062;6.920;2023-02-28T10:42:32;94891.44;;;-144.48;39.11
4123;BME280;2075;51.062;6.920;2023-02-28T10:45:17;94993.03;;;-144.48;38.44
4123;BME280;2075;51.062;6.920;2023-02-28T10:48:05;94976.78;;;-144.48;38.16
4123;BME280;2075;51.062;6.920;2023-02-28T10:50:53;94968.66;;;-144.48;38.24
4123;BME280;2075;51.062;6.920;2023-02-28T10:53:47;94944.28;;;-144.48;38.15
4123;BME280;2075;51.062;6.920;2023-02-28T10:56:33;94960.53;;;-144.48;38.09
4123;BME280;2075;51.062;6.920;2023-02-28T10:59:28;94966.63;;;-144.48;38.22
4123;BME280;2075;51.062;6.920;2023-02-28T11:02:32;94909.72;;;-144.48;38.14
4123;BME280;2075;51.062;6.920;2023-02-28T11:05:26;94948.34;;;-144.48;38.51
4123;BME280;2075;51.062;6.920;2023-02-28T11:08:14;94897.53;;;-144.48;38.26
4123;BME280;2075;51.062;6.920;2023-02-28T11:11:04;94952.41;;;-144.48;38.08
4123;BME280;2075;51.062;6.920;2023-02-28T11:13:56;94915.81;;;-144.48;38.81
4123;BME280;2075;51.062;6.920;2023-02-28T11:16:43;94958.50;;;-144.48;38.80
4123;BME280;2075;51.062;6.920;2023-02-28T11:19:40;94968.66;;;-144.48;39.49
4123;BME280;2075;51.062;6.920;2023-02-28T11:22:29;95001.19;;;-144.48;39.37
4123;BME280;2075;51.062;6.920;2023-02-28T11:25:21;95013.38;;;-144.48;39.82
4123;BME280;2075;51.062;6.920;2023-02-28T11:28:24;94999.16;;;-144.48;40.17
4123;BME280;2075;51.062;6.920;2023-02-28T11:31:17;94964.59;;;-144.48;39.87
4123;BME280;2075;51.062;6.920;2023-02-28T11:34:22;94850.81;;;-144.48;39.30
4123;BME280;2075;51.062;6.920;2023-02-28T11:37:12;94954.44;;;-144.48;39.54
4123;BME280;2075;51.062;6.920;2023-02-28T11:39:58;94982.88;;;-144.48;39.08
4123;BME280;2075;51.062;6.920;2023-02-28T11:42:52;94940.22;;;-144.48;39.05
4123;BME280;2075;51.062;6.920;2023-02-28T11:45:48;94964.59;;;-144.48;38.71
4123;BME280;2075;51.062;6.920;2023-02-28T11:48:44;94926.00;;;-144.48;39.40
4123;BME280;2075;51.062;6.920;2023-02-28T11:51:35;94932.09;;;-144.48;39.59
4123;BME280;2075;51.062;6.920;2023-02-28T11:54:35;94923.97;;;-144.48;38.94
4123;BME280;2075;51.062;6.920;2023-02-28T11:57:34;94921.94;;;-144.48;38.46
4123;BME280;2075;51.062;6.920;2023-02-28T12:00:32;94903.63;;;-144.48;38.29
4123;BME280;2075;51.062;6.920;2023-02-28T12:03:27;94883.31;;;-144.48;38.59
4123;BME280;2075;51.062;6.920;2023-02-28T12:06:20;94891.44;;;-144.48;38.86
4123;BME280;2075;51.062;6.920;2023-02-28T12:09:26;94873.16;;;-144.48;37.87
4123;BME280;2075;51.062;6.920;2023-02-28T12:12:23;94887.38;;;-144.48;37.37
4123;BME280;2075;51.062;6.920;2023-02-28T12:18:41;94879.25;;;-144.48;38.58
4123;BME280;2075;51.062;6.920;2023-02-28T12:21:42;94800.00;;;-144.48;38.33
4123;BME280;2075;51.062;6.920;2023-02-28T12:24:54;94879.25;;;-144.48;38.55
4123;BME280;2075;51.062;6.920;2023-02-28T12:27:44;94891.44;;;-144.48;38.95
4123;BME280;2075;51.062;6.920;2023-02-28T12:30:32;94907.69;;;-144.48;38.96
4123;BME280;2075;51.062;6.920;2023-02-28T12:33:21;94877.22;;;-144.48;39.09
4123;BME280;2075;51.062;6.920;2023-02-28T12:36:10;94911.75;;;-144.48;38.95
4123;BME280;2075;51.062;6.920;2023-02-28T12:39:01;94907.69;;;-144.48;39.24
4123;BME280;2075;51.062;6.920;2023-02-28T12:41:53;94899.56;;;-144.48;39.06
4123;BME280;2075;51.062;6.920;2023-02-28T12:44:44;94952.41;;;-144.48;38.55
4123;BME280;2075;51.062;6.920;2023-02-28T12:47:30;94923.97;;;-144.48;38.58
4123;BME280;2075;51.062;6.920;2023-02-28T12:50:16;94913.78;;;-144.48;38.92
4123;BME280;2075;51.062;6.920;2023-02-28T12:53:05;94895.50;;;-144.48;38.84
4123;BME280;2075;51.062;6.920;2023-02-28T12:55:58;94940.22;;;-144.48;38.38
4123;BME280;2075;51.062;6.920;2023-02-28T12:58:54;94869.09;;;-144.48;38.13
4123;BME280;2075;51.062;6.920;2023-02-28T13:06:03;94887.38;;;-144.48;38.40
4123;BME280;2075;51.062;6.920;2023-02-28T13:09:03;94854.88;;;-144.48;37.94
4123;BME280;2075;51.062;6.920;2023-02-28T13:11:51;94871.13;;;-144.48;37.15
4123;BME280;2075;51.062;6.920;2023-02-28T13:14:39;94903.63;;;-144.48;37.33
4123;BME280;2075;51.062;6.920;2023-02-28T13:17:24;94891.44;;;-144.48;37.37
4123;BME280;2075;51.062;6.920;2023-02-28T13:20:17;94883.31;;;-144.48;37.21
4123;BME280;2075;51.062;6.920;2023-02-28T13:23:03;94840.66;;;-144.48;37.21
4123;BME280;2075;51.062;6.920;2023-02-28T13:26:09;94854.88;;;-144.48;37.18
4123;BME280;2075;51.062;6.920;2023-02-28T13:28:59;94856.91;;;-144.48;37.47
4123;BME280;2075;51.062;6.920;2023-02-28T13:35:35;94858.94;;;-144.48;37.11
4123;BME280;2075;51.062;6.920;2023-02-28T13:38:24;94873.16;;;-144.48;37.35
4123;BME280;2075;51.062;6.920;2023-02-28T13:41:42;94856.91;;;-144.48;37.87
4123;BME280;2075;51.062;6.920;2023-02-28T13:44:28;94840.66;;;-144.48;36.72
4123;BME280;2075;51.062;6.920;2023-02-28T13:47:22;94846.75;;;-144.48;36.84
4123;BME280;2075;51.062;6.920;2023-02-28T13:50:22;94840.66;;;-144.48;36.79
4123;BME280;2075;51.062;6.920;2023-02-28T13:57:00;94824.38;;;-144.48;36.93
4123;BME280;2075;51.062;6.920;2023-02-28T14:00:00;94824.38;;;-144.48;37.03
4123;BME280;2075;51.062;6.920;2023-02-28T14:03:23;94838.63;;;-144.48;36.93
4123;BME280;2075;51.062;6.920;2023-02-28T14:06:21;94812.19;;;-144.48;36.89
4123;BME280;2075;51.062;6.920;2023-02-28T14:09:18;94814.22;;;-144.48;37.08
4123;BME280;2075;51.062;6.920;2023-02-28T14:15:57;94968.66;;;-144.48;36.89
4123;BME280;2075;51.062;6.920;2023-02-28T14:18:48;94826.41;;;-144.48;36.26
4123;BME280;2075;51.062;6.920;2023-02-28T14:21:43;94804.06;;;-144.48;36.26
4123;BME280;2075;51.062;6.920;2023-02-28T14:25:08;94771.56;;;-144.48;36.38
4123;BME280;2075;51.062;6.920;2023-02-28T14:28:08;94793.91;;;-144.48;36.18
4123;BME280;2075;51.062;6.920;2023-02-28T14:31:01;94793.91;;;-144.48;36.88
4123;BME280;2075;51.062;6.920;2023-02-28T14:34:05;94781.72;;;-144.48;37.11
4123;BME280;2075;51.062;6.920;2023-02-28T14:37:02;94732.94;;;-144.48;36.70
4123;BME280;2075;51.062;6.920;2023-02-28T14:39:48;94814.22;;;-144.48;36.09
4123;BME280;2075;51.062;6.920;2023-02-28T14:42:36;94814.22;;;-144.48;36.29
4123;BME280;2075;51.062;6.920;2023-02-28T14:45:27;94773.59;;;-144.48;36.65
4123;BME280;2075;51.062;6.920;2023-02-28T14:48:15;94775.63;;;-144.48;36.79
4123;BME280;2075;51.062;6.920;2023-02-28T14:51:01;94777.66;;;-144.48;36.60
4123;BME280;2075;51.062;6.920;2023-02-28T14:53:51;94797.97;;;-144.48;36.61
4123;BME280;2075;51.062;6.920;2023-02-28T14:56:38;94800.00;;;-144.48;36.75
4123;BME280;2075;51.062;6.920;2023-02-28T14:59:27;94806.09;;;-144.48;36.55
4123;BME280;2075;51.062;6.920;2023-02-28T15:02:18;94804.06;;;-144.48;37.43
4123;BME280;2075;51.062;6.920;2023-02-28T15:05:19;94785.78;;;-144.48;36.56
4123;BME280;2075;51.062;6.920;2023-02-28T15:08:11;94858.94;;;-144.48;36.55
4123;BME280;2075;51.062;6.920;2023-02-28T15:11:01;94767.50;;;-144.48;36.71
4123;BME280;2075;51.062;6.920;2023-02-28T15:13:49;94791.88;;;-144.48;36.71
4123;BME280;2075;51.062;6.920;2023-02-28T15:16:38;94802.03;;;-144.48;37.05